sensor_id;sensor_type;location;lat;lon;timestamp;P1;durP1;ratioP1;P2;durP2;ratioP2
5890;SDS011;2971;52.420;7.080;2024-02-14T00:01:23;8.87;;;7.23;;
5890;SDS011;2971;52.420;7.080;2024-02-14T00:03:49;10.87;;;7.47;;
5890;SDS011;2971;52.420;7.080;2024-02-14T00:06:14;8.70;;;7.63;;
5890;SDS011;2971;52.420;7.080;2024-02-14T00:08:40;9.17;;;8.20;;
5890;SDS011;2971;52.420;7.080;2024-02-14T00:11:06;9.23;;;7.60;;
5890;SDS011;2971;52.420;7.080;2024-02-14T00:13:33;11.57;;;8.20;;
5890;SDS011;2971;52.420;7.080;2024-02-14T00:15:59;10.33;;;8.27;;
5890;SDS011;2971;52.420;7.080;2024-02-14T00:18:24;9.70;;;8.70;;
5890;SDS011;2971;52.420;7.080;2024-02-14T00:20:50;10.33;;;8.50;;
5890;SDS011;2971;52.420;7.080;2024-02-14T00:23:16;9.83;;;8.80;;
5890;SDS011;2971;52.420;7.080;2024-02-14T00:25:41;10.50;;;8.90;;
5890;SDS011;2971;52.420;7.080;2024-02-14T00:28:07;14.17;;;8.90;;
5890;SDS011;2971;52.420;7.080;2024-02-14T00:30:34;11.97;;;9.13;;
5890;SDS011;2971;52.420;7.080;2024-02-14T00:32:59;13.87;;;9.00;;
5890;SDS011;2971;52.420;7.080;2024-02-14T00:35:25;14.13;;;9.53;;
5890;SDS011;2971;52.420;7.080;2024-02-14T00:37:50;10.13;;;9.10;;
5890;SDS011;2971;52.420;7.080;2024-02-14T00:40:17;11.10;;;9.00;;
5890;SDS011;2971;52.420;7.080;2024-02-14T00:42:43;10.00;;;8.93;;
5890;SDS011;2971;52.420;7.080;2024-02-14T00:45:09;10.50;;;9.40;;
5890;SDS011;2971;52.420;7.080;2024-02-14T00:47:36;12.13;;;9.37;;
5890;SDS011;2971;52.420;7.080;2024-02-14T00:50:01;10.37;;;8.80;;
5890;SDS011;2971;52.420;7.080;2024-02-14T00:52:27;9.70;;;8.73;;
5890;SDS011;2971;52.420;7.080;2024-02-14T00:54:54;11.57;;;9.07;;
5890;SDS011;2971;52.420;7.080;2024-02-14T00:57:20;9.97;;;8.97;;
5890;SDS011;2971;52.420;7.080;2024-02-14T00:59:45;12.43;;;9.20;;
5890;SDS011;2971;52.420;7.080;2024-02-14T01:02:11;10.30;;;9.07;;
5890;SDS011;2971;52.420;7.080;2024-02-14T01:04:38;10.33;;;9.33;;
5890;SDS011;2971;52.420;7.080;2024-02-14T01:07:04;9.80;;;8.60;;
5890;SDS011;2971;52.420;7.080;2024-02-14T01:09:33;11.77;;;9.17;;
5890;SDS011;2971;52.420;7.080;2024-02-14T01:11:59;11.80;;;8.97;;
5890;SDS011;2971;52.420;7.080;2024-02-14T01:14:24;9.53;;;8.63;;
5890;SDS011;2971;52.420;7.080;2024-02-14T01:16:50;13.13;;;9.17;;
5890;SDS011;2971;52.420;7.080;2024-02-14T01:19:16;10.30;;;9.20;;
5890;SDS011;2971;52.420;7.080;2024-02-14T01:21:45;10.30;;;9.07;;
5890;SDS011;2971;52.420;7.080;2024-02-14T01:24:13;10.57;;;9.47;;
5890;SDS011;2971;52.420;7.080;2024-02-14T01:26:39;9.63;;;8.70;;
5890;SDS011;2971;52.420;7.080;2024-02-14T01:29:05;10.63;;;8.90;;
5890;SDS011;2971;52.420;7.080;2024-02-14T01:31:31;9.87;;;8.97;;
5890;SDS011;2971;52.420;7.080;2024-02-14T01:33:57;10.83;;;9.33;;
5890;SDS011;2971;52.420;7.080;2024-02-14T01:36:24;11.03;;;9.97;;
5890;SDS011;2971;52.420;7.080;2024-02-14T01:38:51;10.60;;;9.60;;
5890;SDS011;2971;52.420;7.080;2024-02-14T01:41:16;9.93;;;8.93;;
5890;SDS011;2971;52.420;7.080;2024-02-14T01:43:42;11.67;;;10.10;;
5890;SDS011;2971;52.420;7.080;2024-02-14T01:46:09;10.70;;;9.60;;
5890;SDS011;2971;52.420;7.080;2024-02-14T01:48:35;11.30;;;10.20;;
5890;SDS011;2971;52.420;7.080;2024-02-14T01:51:02;10.93;;;9.83;;
5890;SDS011;2971;52.420;7.080;2024-02-14T01:53:28;10.90;;;9.83;;
5890;SDS011;2971;52.420;7.080;2024-02-14T01:55:57;10.13;;;9.13;;
5890;SDS011;2971;52.420;7.080;2024-02-14T01:58:24;9.73;;;8.93;;
5890;SDS011;2971;52.420;7.080;2024-02-14T02:00:49;9.67;;;8.87;;
5890;SDS011;2971;52.420;7.080;2024-02-14T02:03:15;9.77;;;8.87;;
5890;SDS011;2971;52.420;7.080;2024-02-14T02:05:41;10.13;;;9.27;;
5890;SDS011;2971;52.420;7.080;2024-02-14T02:08:07;9.43;;;8.63;;
5890;SDS011;2971;52.420;7.080;2024-02-14T02:10:33;9.30;;;8.50;;
5890;SDS011;2971;52.420;7.080;2024-02-14T02:13:00;9.60;;;8.60;;
5890;SDS011;2971;52.420;7.080;2024-02-14T02:15:26;9.43;;;8.53;;
5890;SDS011;2971;52.420;7.080;2024-02-14T02:17:53;9.63;;;8.73;;
5890;SDS011;2971;52.420;7.080;2024-02-14T02:20:19;9.80;;;8.90;;
5890;SDS011;2971;52.420;7.080;2024-02-14T02:22:47;10.07;;;9.10;;
5890;SDS011;2971;52.420;7.080;2024-02-14T02:25:13;9.73;;;8.83;;
5890;SDS011;2971;52.420;7.080;2024-02-14T02:27:39;9.67;;;8.83;;
5890;SDS011;2971;52.420;7.080;2024-02-14T02:30:05;9.87;;;9.07;;
5890;SDS011;2971;52.420;7.080;2024-02-14T02:32:33;10.20;;;9.20;;
5890;SDS011;2971;52.420;7.080;2024-02-14T02:34:59;10.33;;;9.43;;
5890;SDS011;2971;52.420;7.080;2024-02-14T02:37:25;10.27;;;9.40;;
5890;SDS011;2971;52.420;7.080;2024-02-14T02:39:52;10.07;;;9.17;;
5890;SDS011;2971;52.420;7.080;2024-02-14T02:42:17;10.20;;;9.23;;
5890;SDS011;2971;52.420;7.080;2024-02-14T02:44:45;9.60;;;8.70;;
5890;SDS011;2971;52.420;7.080;2024-02-14T02:47:11;9.90;;;8.93;;
5890;SDS011;2971;52.420;7.080;2024-02-14T02:49:37;10.77;;;9.77;;
5890;SDS011;2971;52.420;7.080;2024-02-14T02:52:03;11.17;;;9.43;;
5890;SDS011;2971;52.420;7.080;2024-02-14T02:54:29;10.00;;;9.00;;
5890;SDS011;2971;52.420;7.080;2024-02-14T02:56:56;10.10;;;9.20;;
5890;SDS011;2971;52.420;7.080;2024-02-14T02:59:21;9.80;;;8.83;;
5890;SDS011;2971;52.420;7.080;2024-02-14T03:01:47;9.53;;;8.70;;
5890;SDS011;2971;52.420;7.080;2024-02-14T03:04:14;9.70;;;8.37;;
5890;SDS011;2971;52.420;7.080;2024-02-14T03:06:40;9.60;;;8.70;;
5890;SDS011;2971;52.420;7.080;2024-02-14T03:09:05;8.93;;;8.17;;
5890;SDS011;2971;52.420;7.080;2024-02-14T03:11:32;9.40;;;8.43;;
5890;SDS011;2971;52.420;7.080;2024-02-14T03:13:59;9.17;;;8.30;;
5890;SDS011;2971;52.420;7.080;2024-02-14T03:16:25;8.70;;;7.90;;
5890;SDS011;2971;52.420;7.080;2024-02-14T03:18:51;12.30;;;8.43;;
5890;SDS011;2971;52.420;7.080;2024-02-14T03:21:18;8.90;;;8.20;;
5890;SDS011;2971;52.420;7.080;2024-02-14T03:23:44;8.53;;;7.73;;
5890;SDS011;2971;52.420;7.080;2024-02-14T03:26:11;8.83;;;8.07;;
5890;SDS011;2971;52.420;7.080;2024-02-14T03:28:36;8.57;;;7.87;;
5890;SDS011;2971;52.420;7.080;2024-02-14T03:31:03;9.50;;;8.60;;
5890;SDS011;2971;52.420;7.080;2024-02-14T03:33:30;9.17;;;8.30;;
5890;SDS011;2971;52.420;7.080;2024-02-14T03:35:55;9.03;;;8.13;;
5890;SDS011;2971;52.420;7.080;2024-02-14T03:38:24;9.20;;;8.30;;
5890;SDS011;2971;52.420;7.080;2024-02-14T03:40:50;9.70;;;8.70;;
5890;SDS011;2971;52.420;7.080;2024-02-14T03:43:16;9.33;;;8.53;;
5890;SDS011;2971;52.420;7.080;2024-02-14T03:45:41;9.20;;;8.40;;
5890;SDS011;2971;52.420;7.080;2024-02-14T03:48:08;9.37;;;8.53;;
5890;SDS011;2971;52.420;7.080;2024-02-14T03:50:37;9.50;;;8.60;;
5890;SDS011;2971;52.420;7.080;2024-02-14T03:53:03;10.10;;;9.20;;
5890;SDS011;2971;52.420;7.080;2024-02-14T03:55:29;9.57;;;8.67;;
5890;SDS011;2971;52.420;7.080;2024-02-14T03:57:55;10.47;;;9.47;;
5890;SDS011;2971;52.420;7.080;2024-02-14T04:00:21;10.60;;;9.60;;
5890;SDS011;2971;52.420;7.080;2024-02-14T04:02:47;11.40;;;10.20;;
5890;SDS011;2971;52.420;7.080;2024-02-14T04:05:15;10.73;;;9.73;;
5890;SDS011;2971;52.420;7.080;2024-02-14T04:07:40;11.40;;;10.20;;
5890;SDS011;2971;52.420;7.080;2024-02-14T04:10:09;10.40;;;9.50;;
5890;SDS011;2971;52.420;7.080;2024-02-14T04:12:35;10.87;;;9.77;;
5890;SDS011;2971;52.420;7.080;2024-02-14T04:15:00;10.80;;;9.80;;
5890;SDS011;2971;52.420;7.080;2024-02-14T04:17:26;10.83;;;9.83;;
5890;SDS011;2971;52.420;7.080;2024-02-14T04:19:51;12.07;;;10.97;;
5890;SDS011;2971;52.420;7.080;2024-02-14T04:22:18;10.93;;;9.83;;
5890;SDS011;2971;52.420;7.080;2024-02-14T04:24:45;10.77;;;9.67;;
5890;SDS011;2971;52.420;7.080;2024-02-14T04:27:11;10.10;;;9.20;;
5890;SDS011;2971;52.420;7.080;2024-02-14T04:29:36;10.67;;;9.67;;
5890;SDS011;2971;52.420;7.080;2024-02-14T04:32:02;11.23;;;10.23;;
5890;SDS011;2971;52.420;7.080;2024-02-14T04:34:28;10.47;;;9.50;;
5890;SDS011;2971;52.420;7.080;2024-02-14T04:36:54;10.30;;;9.40;;
5890;SDS011;2971;52.420;7.080;2024-02-14T04:39:21;9.57;;;8.77;;
5890;SDS011;2971;52.420;7.080;2024-02-14T04:41:47;9.83;;;9.03;;
5890;SDS011;2971;52.420;7.080;2024-02-14T04:44:15;9.90;;;9.10;;
5890;SDS011;2971;52.420;7.080;2024-02-14T04:46:40;9.77;;;9.00;;
5890;SDS011;2971;52.420;7.080;2024-02-14T04:49:08;9.60;;;8.70;;
5890;SDS011;2971;52.420;7.080;2024-02-14T04:51:34;9.33;;;8.53;;
5890;SDS011;2971;52.420;7.080;2024-02-14T04:54:00;9.23;;;8.43;;
5890;SDS011;2971;52.420;7.080;2024-02-14T04:56:27;9.60;;;8.80;;
5890;SDS011;2971;52.420;7.080;2024-02-14T04:58:53;8.80;;;8.10;;
5890;SDS011;2971;52.420;7.080;2024-02-14T05:01:18;9.57;;;8.73;;
5890;SDS011;2971;52.420;7.080;2024-02-14T05:03:44;9.10;;;8.30;;
5890;SDS011;2971;52.420;7.080;2024-02-14T05:06:10;9.00;;;8.20;;
5890;SDS011;2971;52.420;7.080;2024-02-14T05:08:35;8.90;;;8.20;;
5890;SDS011;2971;52.420;7.080;2024-02-14T05:11:01;9.03;;;8.23;;
5890;SDS011;2971;52.420;7.080;2024-02-14T05:13:28;8.90;;;8.17;;
5890;SDS011;2971;52.420;7.080;2024-02-14T05:15:53;8.77;;;7.97;;
5890;SDS011;2971;52.420;7.080;2024-02-14T05:18:19;9.17;;;8.47;;
5890;SDS011;2971;52.420;7.080;2024-02-14T05:20:44;9.50;;;8.70;;
5890;SDS011;2971;52.420;7.080;2024-02-14T05:23:10;9.27;;;8.57;;
5890;SDS011;2971;52.420;7.080;2024-02-14T05:25:36;9.83;;;8.93;;
5890;SDS011;2971;52.420;7.080;2024-02-14T05:28:02;10.13;;;9.23;;
5890;SDS011;2971;52.420;7.080;2024-02-14T05:30:29;10.90;;;10.00;;
5890;SDS011;2971;52.420;7.080;2024-02-14T05:32:54;11.13;;;10.13;;
5890;SDS011;2971;52.420;7.080;2024-02-14T05:35:21;11.13;;;10.23;;
5890;SDS011;2971;52.420;7.080;2024-02-14T05:37:47;11.67;;;10.67;;
5890;SDS011;2971;52.420;7.080;2024-02-14T05:40:15;12.73;;;11.70;;
5890;SDS011;2971;52.420;7.080;2024-02-14T05:42:40;12.87;;;11.67;;
5890;SDS011;2971;52.420;7.080;2024-02-14T05:45:06;13.37;;;12.17;;
5890;SDS011;2971;52.420;7.080;2024-02-14T05:47:36;13.47;;;12.27;;
5890;SDS011;2971;52.420;7.080;2024-02-14T05:50:02;14.20;;;13.00;;
5890;SDS011;2971;52.420;7.080;2024-02-14T05:52:29;15.17;;;13.73;;
5890;SDS011;2971;52.420;7.080;2024-02-14T05:54:54;15.43;;;13.93;;
5890;SDS011;2971;52.420;7.080;2024-02-14T05:57:20;15.17;;;13.87;;
5890;SDS011;2971;52.420;7.080;2024-02-14T05:59:45;16.33;;;14.93;;
5890;SDS011;2971;52.420;7.080;2024-02-14T06:02:11;16.53;;;15.10;;
5890;SDS011;2971;52.420;7.080;2024-02-14T06:04:38;15.83;;;14.37;;
5890;SDS011;2971;52.420;7.080;2024-02-14T06:07:04;17.03;;;15.43;;
5890;SDS011;2971;52.420;7.080;2024-02-14T06:09:31;16.93;;;15.43;;
5890;SDS011;2971;52.420;7.080;2024-02-14T06:11:57;17.23;;;15.73;;
5890;SDS011;2971;52.420;7.080;2024-02-14T06:14:23;18.10;;;16.43;;
5890;SDS011;2971;52.420;7.080;2024-02-14T06:16:49;18.70;;;17.03;;
5890;SDS011;2971;52.420;7.080;2024-02-14T06:19:14;19.33;;;17.50;;
5890;SDS011;2971;52.420;7.080;2024-02-14T06:21:41;19.40;;;17.67;;
5890;SDS011;2971;52.420;7.080;2024-02-14T06:24:07;20.47;;;18.47;;
5890;SDS011;2971;52.420;7.080;2024-02-14T06:26:32;21.27;;;19.23;;
5890;SDS011;2971;52.420;7.080;2024-02-14T06:28:58;20.73;;;18.73;;
5890;SDS011;2971;52.420;7.080;2024-02-14T06:31:24;22.00;;;19.83;;
5890;SDS011;2971;52.420;7.080;2024-02-14T06:33:49;21.93;;;19.77;;
5890;SDS011;2971;52.420;7.080;2024-02-14T06:36:15;23.93;;;21.63;;
5890;SDS011;2971;52.420;7.080;2024-02-14T06:38:42;23.83;;;21.53;;
5890;SDS011;2971;52.420;7.080;2024-02-14T06:41:10;23.93;;;21.67;;
5890;SDS011;2971;52.420;7.080;2024-02-14T06:43:36;22.33;;;20.10;;
5890;SDS011;2971;52.420;7.080;2024-02-14T06:46:04;23.63;;;21.43;;
5890;SDS011;2971;52.420;7.080;2024-02-14T06:48:29;23.77;;;21.37;;
5890;SDS011;2971;52.420;7.080;2024-02-14T06:50:55;24.50;;;22.10;;
5890;SDS011;2971;52.420;7.080;2024-02-14T06:53:21;25.57;;;22.87;;
5890;SDS011;2971;52.420;7.080;2024-02-14T06:55:48;24.97;;;22.37;;
5890;SDS011;2971;52.420;7.080;2024-02-14T06:58:13;25.53;;;22.83;;
5890;SDS011;2971;52.420;7.080;2024-02-14T07:00:39;25.77;;;23.10;;
5890;SDS011;2971;52.420;7.080;2024-02-14T07:03:05;25.17;;;22.73;;
5890;SDS011;2971;52.420;7.080;2024-02-14T07:05:30;25.63;;;22.93;;
5890;SDS011;2971;52.420;7.080;2024-02-14T07:07:56;25.83;;;23.13;;
5890;SDS011;2971;52.420;7.080;2024-02-14T07:10:21;26.23;;;23.43;;
5890;SDS011;2971;52.420;7.080;2024-02-14T07:12:48;27.37;;;22.43;;
5890;SDS011;2971;52.420;7.080;2024-02-14T07:15:14;23.70;;;21.30;;
5890;SDS011;2971;52.420;7.080;2024-02-14T07:17:40;23.40;;;21.03;;
5890;SDS011;2971;52.420;7.080;2024-02-14T07:20:06;26.03;;;22.27;;
5890;SDS011;2971;52.420;7.080;2024-02-14T07:22:35;23.47;;;20.70;;
5890;SDS011;2971;52.420;7.080;2024-02-14T07:25:01;26.43;;;22.50;;
5890;SDS011;2971;52.420;7.080;2024-02-14T07:27:26;25.33;;;22.00;;
5890;SDS011;2971;52.420;7.080;2024-02-14T07:29:53;26.03;;;22.00;;
5890;SDS011;2971;52.420;7.080;2024-02-14T07:32:19;25.10;;;22.40;;
5890;SDS011;2971;52.420;7.080;2024-02-14T07:34:45;26.17;;;22.23;;
5890;SDS011;2971;52.420;7.080;2024-02-14T07:37:11;27.43;;;23.07;;
5890;SDS011;2971;52.420;7.080;2024-02-14T07:39:36;24.27;;;21.57;;
5890;SDS011;2971;52.420;7.080;2024-02-14T07:42:02;23.80;;;21.23;;
5890;SDS011;2971;52.420;7.080;2024-02-14T07:44:28;23.23;;;20.93;;
5890;SDS011;2971;52.420;7.080;2024-02-14T07:46:55;24.63;;;21.13;;
5890;SDS011;2971;52.420;7.080;2024-02-14T07:49:20;23.63;;;21.13;;
5890;SDS011;2971;52.420;7.080;2024-02-14T07:51:46;22.27;;;20.03;;
5890;SDS011;2971;52.420;7.080;2024-02-14T07:54:12;21.87;;;19.63;;
5890;SDS011;2971;52.420;7.080;2024-02-14T07:56:37;20.80;;;18.70;;
5890;SDS011;2971;52.420;7.080;2024-02-14T07:59:03;20.70;;;18.17;;
5890;SDS011;2971;52.420;7.080;2024-02-14T08:01:30;19.70;;;17.70;;
5890;SDS011;2971;52.420;7.080;2024-02-14T08:03:58;19.77;;;17.77;;
5890;SDS011;2971;52.420;7.080;2024-02-14T08:06:24;19.50;;;17.43;;
5890;SDS011;2971;52.420;7.080;2024-02-14T08:08:50;17.57;;;15.87;;
5890;SDS011;2971;52.420;7.080;2024-02-14T08:11:19;17.77;;;15.93;;
5890;SDS011;2971;52.420;7.080;2024-02-14T08:13:44;17.23;;;15.43;;
5890;SDS011;2971;52.420;7.080;2024-02-14T08:16:10;15.63;;;14.07;;
5890;SDS011;2971;52.420;7.080;2024-02-14T08:18:35;16.00;;;14.40;;
5890;SDS011;2971;52.420;7.080;2024-02-14T08:21:03;15.33;;;13.90;;
5890;SDS011;2971;52.420;7.080;2024-02-14T08:23:29;15.37;;;13.80;;
5890;SDS011;2971;52.420;7.080;2024-02-14T08:25:55;14.90;;;13.50;;
5890;SDS011;2971;52.420;7.080;2024-02-14T08:28:20;14.37;;;12.93;;
5890;SDS011;2971;52.420;7.080;2024-02-14T08:30:46;13.27;;;12.07;;
5890;SDS011;2971;52.420;7.080;2024-02-14T08:33:12;13.60;;;12.30;;
5890;SDS011;2971;52.420;7.080;2024-02-14T08:35:38;13.53;;;12.13;;
5890;SDS011;2971;52.420;7.080;2024-02-14T08:38:05;13.37;;;12.07;;
5890;SDS011;2971;52.420;7.080;2024-02-14T08:40:31;12.67;;;11.47;;
5890;SDS011;2971;52.420;7.080;2024-02-14T08:42:57;12.53;;;11.43;;
5890;SDS011;2971;52.420;7.080;2024-02-14T08:45:24;13.17;;;11.97;;
5890;SDS011;2971;52.420;7.080;2024-02-14T08:47:50;13.97;;;12.30;;
5890;SDS011;2971;52.420;7.080;2024-02-14T08:50:16;13.73;;;12.47;;
5890;SDS011;2971;52.420;7.080;2024-02-14T08:52:42;13.40;;;12.10;;
5890;SDS011;2971;52.420;7.080;2024-02-14T08:55:09;13.37;;;12.27;;
5890;SDS011;2971;52.420;7.080;2024-02-14T08:57:41;13.90;;;12.70;;
5890;SDS011;2971;52.420;7.080;2024-02-14T09:00:08;13.90;;;12.60;;
5890;SDS011;2971;52.420;7.080;2024-02-14T09:02:35;14.07;;;12.77;;
5890;SDS011;2971;52.420;7.080;2024-02-14T09:05:01;15.07;;;13.67;;
5890;SDS011;2971;52.420;7.080;2024-02-14T09:07:29;14.33;;;13.03;;
5890;SDS011;2971;52.420;7.080;2024-02-14T09:09:56;15.60;;;14.10;;
5890;SDS011;2971;52.420;7.080;2024-02-14T09:12:23;14.97;;;13.47;;
5890;SDS011;2971;52.420;7.080;2024-02-14T09:14:49;15.30;;;13.80;;
5890;SDS011;2971;52.420;7.080;2024-02-14T09:17:14;15.63;;;14.13;;
5890;SDS011;2971;52.420;7.080;2024-02-14T09:19:40;16.10;;;14.60;;
5890;SDS011;2971;52.420;7.080;2024-02-14T09:22:06;15.90;;;14.37;;
5890;SDS011;2971;52.420;7.080;2024-02-14T09:24:31;15.43;;;14.03;;
5890;SDS011;2971;52.420;7.080;2024-02-14T09:26:57;16.10;;;14.67;;
5890;SDS011;2971;52.420;7.080;2024-02-14T09:29:25;16.47;;;14.87;;
5890;SDS011;2971;52.420;7.080;2024-02-14T09:31:50;16.40;;;14.77;;
5890;SDS011;2971;52.420;7.080;2024-02-14T09:34:16;16.77;;;15.03;;
5890;SDS011;2971;52.420;7.080;2024-02-14T09:36:44;17.10;;;15.40;;
5890;SDS011;2971;52.420;7.080;2024-02-14T09:39:10;17.00;;;15.30;;
5890;SDS011;2971;52.420;7.080;2024-02-14T09:41:36;17.07;;;15.57;;
5890;SDS011;2971;52.420;7.080;2024-02-14T09:44:02;16.97;;;15.17;;
5890;SDS011;2971;52.420;7.080;2024-02-14T09:46:30;16.63;;;15.10;;
5890;SDS011;2971;52.420;7.080;2024-02-14T09:48:55;15.83;;;14.33;;
5890;SDS011;2971;52.420;7.080;2024-02-14T09:51:22;17.30;;;15.63;;
5890;SDS011;2971;52.420;7.080;2024-02-14T09:53:51;15.63;;;14.27;;
5890;SDS011;2971;52.420;7.080;2024-02-14T09:56:19;16.23;;;14.63;;
5890;SDS011;2971;52.420;7.080;2024-02-14T09:58:47;17.27;;;15.57;;
5890;SDS011;2971;52.420;7.080;2024-02-14T10:01:20;16.73;;;15.07;;
5890;SDS011;2971;52.420;7.080;2024-02-14T10:03:50;16.60;;;15.10;;
5890;SDS011;2971;52.420;7.080;2024-02-14T10:06:17;16.60;;;15.10;;
5890;SDS011;2971;52.420;7.080;2024-02-14T10:08:42;17.63;;;15.80;;
5890;SDS011;2971;52.420;7.080;2024-02-14T10:11:08;18.43;;;16.43;;
5890;SDS011;2971;52.420;7.080;2024-02-14T10:13:35;17.77;;;15.87;;
5890;SDS011;2971;52.420;7.080;2024-02-14T10:16:01;17.60;;;16.00;;
5890;SDS011;2971;52.420;7.080;2024-02-14T10:18:26;17.07;;;15.27;;
5890;SDS011;2971;52.420;7.080;2024-02-14T10:20:54;18.30;;;15.57;;
5890;SDS011;2971;52.420;7.080;2024-02-14T10:23:20;17.30;;;15.70;;
5890;SDS011;2971;52.420;7.080;2024-02-14T10:25:47;15.77;;;14.37;;
5890;SDS011;2971;52.420;7.080;2024-02-14T10:28:12;15.73;;;14.33;;
5890;SDS011;2971;52.420;7.080;2024-02-14T10:30:38;15.83;;;14.37;;
5890;SDS011;2971;52.420;7.080;2024-02-14T10:33:05;14.60;;;13.33;;
5890;SDS011;2971;52.420;7.080;2024-02-14T10:35:32;14.03;;;12.73;;
5890;SDS011;2971;52.420;7.080;2024-02-14T10:38:00;14.57;;;13.27;;
5890;SDS011;2971;52.420;7.080;2024-02-14T10:40:27;13.20;;;11.90;;
5890;SDS011;2971;52.420;7.080;2024-02-14T10:42:53;12.30;;;11.10;;
5890;SDS011;2971;52.420;7.080;2024-02-14T10:45:19;12.60;;;11.30;;
5890;SDS011;2971;52.420;7.080;2024-02-14T10:47:45;12.20;;;11.13;;
5890;SDS011;2971;52.420;7.080;2024-02-14T10:50:14;12.73;;;11.43;;
5890;SDS011;2971;52.420;7.080;2024-02-14T10:52:40;12.40;;;11.20;;
5890;SDS011;2971;52.420;7.080;2024-02-14T10:55:08;12.27;;;11.07;;
5890;SDS011;2971;52.420;7.080;2024-02-14T10:57:36;11.70;;;10.70;;
5890;SDS011;2971;52.420;7.080;2024-02-14T11:00:03;11.83;;;10.73;;
5890;SDS011;2971;52.420;7.080;2024-02-14T11:02:30;11.77;;;10.60;;
5890;SDS011;2971;52.420;7.080;2024-02-14T11:04:57;11.93;;;10.87;;
5890;SDS011;2971;52.420;7.080;2024-02-14T11:07:23;11.17;;;10.20;;
5890;SDS011;2971;52.420;7.080;2024-02-14T11:09:59;11.87;;;10.87;;
5890;SDS011;2971;52.420;7.080;2024-02-14T11:12:32;11.77;;;10.77;;
5890;SDS011;2971;52.420;7.080;2024-02-14T11:14:58;11.90;;;10.80;;
5890;SDS011;2971;52.420;7.080;2024-02-14T11:17:26;10.77;;;9.77;;
5890;SDS011;2971;52.420;7.080;2024-02-14T11:19:52;10.23;;;9.33;;
5890;SDS011;2971;52.420;7.080;2024-02-14T11:22:18;9.90;;;9.00;;
5890;SDS011;2971;52.420;7.080;2024-02-14T11:24:45;9.67;;;8.87;;
5890;SDS011;2971;52.420;7.080;2024-02-14T11:27:14;10.37;;;9.47;;
5890;SDS011;2971;52.420;7.080;2024-02-14T11:29:50;9.53;;;8.63;;
5890;SDS011;2971;52.420;7.080;2024-02-14T11:32:16;10.10;;;9.10;;
5890;SDS011;2971;52.420;7.080;2024-02-14T11:34:43;9.80;;;8.90;;
5890;SDS011;2971;52.420;7.080;2024-02-14T11:37:09;10.57;;;9.63;;
5890;SDS011;2971;52.420;7.080;2024-02-14T11:39:34;10.30;;;9.47;;
5890;SDS011;2971;52.420;7.080;2024-02-14T11:42:00;10.00;;;9.20;;
5890;SDS011;2971;52.420;7.080;2024-02-14T11:44:25;10.90;;;9.90;;
5890;SDS011;2971;52.420;7.080;2024-02-14T11:46:52;11.07;;;10.07;;
5890;SDS011;2971;52.420;7.080;2024-02-14T11:49:19;11.10;;;10.00;;
5890;SDS011;2971;52.420;7.080;2024-02-14T11:51:44;10.43;;;9.60;;
5890;SDS011;2971;52.420;7.080;2024-02-14T11:54:10;10.90;;;9.90;;
5890;SDS011;2971;52.420;7.080;2024-02-14T11:56:36;11.20;;;10.23;;
5890;SDS011;2971;52.420;7.080;2024-02-14T11:59:02;11.20;;;10.30;;
5890;SDS011;2971;52.420;7.080;2024-02-14T12:01:28;11.33;;;10.33;;
5890;SDS011;2971;52.420;7.080;2024-02-14T12:03:57;11.53;;;10.43;;
5890;SDS011;2971;52.420;7.080;2024-02-14T12:06:22;12.27;;;11.03;;
5890;SDS011;2971;52.420;7.080;2024-02-14T12:08:48;12.27;;;11.10;;
5890;SDS011;2971;52.420;7.080;2024-02-14T12:11:13;12.67;;;11.57;;
5890;SDS011;2971;52.420;7.080;2024-02-14T12:13:40;13.80;;;12.43;;
5890;SDS011;2971;52.420;7.080;2024-02-14T12:16:08;14.77;;;13.47;;
5890;SDS011;2971;52.420;7.080;2024-02-14T12:18:36;15.37;;;13.50;;
5890;SDS011;2971;52.420;7.080;2024-02-14T12:21:06;15.17;;;13.67;;
5890;SDS011;2971;52.420;7.080;2024-02-14T12:23:34;15.87;;;14.20;;
5890;SDS011;2971;52.420;7.080;2024-02-14T12:26:01;15.87;;;14.27;;
5890;SDS011;2971;52.420;7.080;2024-02-14T12:28:28;15.97;;;14.30;;
5890;SDS011;2971;52.420;7.080;2024-02-14T12:30:55;16.30;;;14.67;;
5890;SDS011;2971;52.420;7.080;2024-02-14T12:33:21;16.03;;;14.47;;
5890;SDS011;2971;52.420;7.080;2024-02-14T12:35:48;16.57;;;14.87;;
5890;SDS011;2971;52.420;7.080;2024-02-14T12:38:16;16.77;;;15.07;;
5890;SDS011;2971;52.420;7.080;2024-02-14T12:40:43;17.13;;;15.40;;
5890;SDS011;2971;52.420;7.080;2024-02-14T12:43:12;17.17;;;15.53;;
5890;SDS011;2971;52.420;7.080;2024-02-14T12:45:39;17.40;;;15.60;;
5890;SDS011;2971;52.420;7.080;2024-02-14T12:48:05;18.00;;;15.13;;
5890;SDS011;2971;52.420;7.080;2024-02-14T12:50:31;17.37;;;15.50;;
5890;SDS011;2971;52.420;7.080;2024-02-14T12:52:57;19.07;;;15.97;;
5890;SDS011;2971;52.420;7.080;2024-02-14T12:55:24;18.90;;;15.97;;
5890;SDS011;2971;52.420;7.080;2024-02-14T12:57:50;17.90;;;16.00;;
5890;SDS011;2971;52.420;7.080;2024-02-14T13:00:16;22.53;;;17.07;;
5890;SDS011;2971;52.420;7.080;2024-02-14T13:02:42;17.70;;;15.80;;
5890;SDS011;2971;52.420;7.080;2024-02-14T13:05:08;18.10;;;16.30;;
5890;SDS011;2971;52.420;7.080;2024-02-14T13:07:33;18.13;;;15.93;;
5890;SDS011;2971;52.420;7.080;2024-02-14T13:09:59;17.23;;;15.00;;
5890;SDS011;2971;52.420;7.080;2024-02-14T13:12:26;17.77;;;15.80;;
5890;SDS011;2971;52.420;7.080;2024-02-14T13:14:52;16.83;;;15.13;;
5890;SDS011;2971;52.420;7.080;2024-02-14T13:17:18;17.93;;;15.50;;
5890;SDS011;2971;52.420;7.080;2024-02-14T13:19:43;17.23;;;15.40;;
5890;SDS011;2971;52.420;7.080;2024-02-14T13:22:09;16.50;;;14.33;;
5890;SDS011;2971;52.420;7.080;2024-02-14T13:24:34;15.97;;;14.33;;
5890;SDS011;2971;52.420;7.080;2024-02-14T13:27:00;15.23;;;13.73;;
5890;SDS011;2971;52.420;7.080;2024-02-14T13:29:27;15.57;;;13.97;;
5890;SDS011;2971;52.420;7.080;2024-02-14T13:31:53;15.23;;;13.60;;
5890;SDS011;2971;52.420;7.080;2024-02-14T13:34:19;14.43;;;12.97;;
5890;SDS011;2971;52.420;7.080;2024-02-14T13:36:45;14.30;;;12.90;;
5890;SDS011;2971;52.420;7.080;2024-02-14T13:39:10;13.40;;;12.20;;
5890;SDS011;2971;52.420;7.080;2024-02-14T13:41:37;13.37;;;12.07;;
5890;SDS011;2971;52.420;7.080;2024-02-14T13:44:03;12.53;;;11.30;;
5890;SDS011;2971;52.420;7.080;2024-02-14T13:46:30;13.20;;;11.83;;
5890;SDS011;2971;52.420;7.080;2024-02-14T13:48:56;12.33;;;11.20;;
5890;SDS011;2971;52.420;7.080;2024-02-14T13:51:22;12.03;;;10.73;;
5890;SDS011;2971;52.420;7.080;2024-02-14T13:53:48;11.93;;;10.57;;
5890;SDS011;2971;52.420;7.080;2024-02-14T13:56:14;12.03;;;10.83;;
5890;SDS011;2971;52.420;7.080;2024-02-14T13:58:41;11.03;;;9.93;;
5890;SDS011;2971;52.420;7.080;2024-02-14T14:01:06;11.67;;;10.57;;
5890;SDS011;2971;52.420;7.080;2024-02-14T14:03:33;11.17;;;10.03;;
5890;SDS011;2971;52.420;7.080;2024-02-14T14:06:02;10.60;;;9.50;;
5890;SDS011;2971;52.420;7.080;2024-02-14T14:08:28;10.60;;;9.60;;
5890;SDS011;2971;52.420;7.080;2024-02-14T14:10:53;9.47;;;8.63;;
5890;SDS011;2971;52.420;7.080;2024-02-14T14:13:19;10.17;;;9.27;;
5890;SDS011;2971;52.420;7.080;2024-02-14T14:15:45;9.23;;;8.30;;
5890;SDS011;2971;52.420;7.080;2024-02-14T14:18:10;9.53;;;8.50;;
5890;SDS011;2971;52.420;7.080;2024-02-14T14:20:37;9.67;;;8.27;;
5890;SDS011;2971;52.420;7.080;2024-02-14T14:23:03;8.83;;;8.03;;
5890;SDS011;2971;52.420;7.080;2024-02-14T14:25:29;8.80;;;7.90;;
5890;SDS011;2971;52.420;7.080;2024-02-14T14:27:55;9.07;;;8.17;;
5890;SDS011;2971;52.420;7.080;2024-02-14T14:30:21;8.87;;;7.97;;
5890;SDS011;2971;52.420;7.080;2024-02-14T14:32:46;7.97;;;7.17;;
5890;SDS011;2971;52.420;7.080;2024-02-14T14:35:12;7.60;;;6.77;;
5890;SDS011;2971;52.420;7.080;2024-02-14T14:37:39;7.80;;;7.10;;
5890;SDS011;2971;52.420;7.080;2024-02-14T14:40:05;7.07;;;6.40;;
5890;SDS011;2971;52.420;7.080;2024-02-14T14:42:33;7.83;;;6.40;;
5890;SDS011;2971;52.420;7.080;2024-02-14T14:44:58;6.93;;;6.23;;
5890;SDS011;2971;52.420;7.080;2024-02-14T14:47:24;6.83;;;5.83;;
5890;SDS011;2971;52.420;7.080;2024-02-14T14:49:50;6.50;;;5.90;;
5890;SDS011;2971;52.420;7.080;2024-02-14T14:52:16;5.60;;;5.10;;